createdAt,value
2023-04-15T00:00:57.499Z,11.65
2023-04-15T00:03:24.680Z,10.73
2023-04-15T00:05:51.984Z,11.07
2023-04-15T00:08:18.462Z,5.78
2023-04-15T00:10:46.454Z,6.20
2023-04-15T00:13:12.917Z,9.52
2023-04-15T00:15:39.384Z,6.60
2023-04-15T00:18:05.878Z,10.82
2023-04-15T00:20:32.268Z,8.55
2023-04-15T00:22:59.385Z,8.57
2023-04-15T00:25:26.228Z,8.82
2023-04-15T00:27:52.646Z,8.75
2023-04-15T00:30:19.650Z,8.52
2023-04-15T00:32:46.833Z,8.73
2023-04-15T00:35:13.821Z,8.65
2023-04-15T00:37:40.440Z,6.65
2023-04-15T00:40:12.874Z,12.23
2023-04-15T00:42:39.695Z,10.52
2023-04-15T00:45:07.152Z,10.48
2023-04-15T00:47:35.518Z,8.90
2023-04-15T00:50:02.148Z,8.88
2023-04-15T00:52:28.611Z,10.45
2023-04-15T00:54:55.745Z,9.30
2023-04-15T00:57:22.815Z,10.13
2023-04-15T00:59:51.248Z,12.90
2023-04-15T01:02:17.883Z,10.73
2023-04-15T01:04:44.382Z,7.60
2023-04-15T01:07:10.987Z,8.98
2023-04-15T01:09:37.689Z,8.70
2023-04-15T01:12:05.021Z,9.10
2023-04-15T01:14:31.959Z,6.30
2023-04-15T01:16:58.548Z,9.35
2023-04-15T01:19:25.418Z,6.63
2023-04-15T01:21:52.583Z,9.65
2023-04-15T01:24:19.210Z,9.90
2023-04-15T01:26:46.606Z,8.90
2023-04-15T01:29:13.197Z,15.75
2023-04-15T01:31:39.654Z,8.95
2023-04-15T01:34:06.073Z,12.55
2023-04-15T01:36:32.531Z,10.52
2023-04-15T01:38:59.443Z,10.63
2023-04-15T01:41:27.430Z,7.75
2023-04-15T01:43:54.905Z,7.57
2023-04-15T01:46:21.509Z,9.93
2023-04-15T01:48:47.965Z,8.80
2023-04-15T01:51:14.465Z,8.45
2023-04-15T01:53:41.351Z,12.40
2023-04-15T01:56:08.496Z,8.88
2023-04-15T01:58:35.108Z,8.57
2023-04-15T02:01:02.925Z,13.80
2023-04-15T02:03:31.669Z,11.25
2023-04-15T02:05:58.507Z,9.85
2023-04-15T02:08:25.062Z,8.65
2023-04-15T02:10:51.693Z,9.05
2023-04-15T02:13:18.151Z,10.35
2023-04-15T02:15:48.854Z,16.50
2023-04-15T02:18:16.810Z,15.32
2023-04-15T02:20:43.868Z,11.68
2023-04-15T02:23:11.132Z,12.02
2023-04-15T02:25:39.040Z,10.63
2023-04-15T02:28:06.347Z,11.98
2023-04-15T02:30:33.981Z,10.55
2023-04-15T02:33:02.382Z,8.00
2023-04-15T02:35:29.050Z,9.00
2023-04-15T02:37:55.847Z,9.43
2023-04-15T02:40:22.697Z,7.25
2023-04-15T02:42:49.195Z,8.07
2023-04-15T02:45:19.541Z,7.65
2023-04-15T02:47:47.300Z,10.50
2023-04-15T02:50:15.087Z,10.48
2023-04-15T02:52:43.065Z,8.90
2023-04-15T02:55:10.488Z,7.75
2023-04-15T02:57:38.909Z,8.88
2023-04-15T03:00:10.124Z,7.35
2023-04-15T03:02:40.111Z,7.57
2023-04-15T03:05:07.321Z,10.05
2023-04-15T03:07:33.888Z,9.77
2023-04-15T03:10:02.228Z,8.18
2023-04-15T03:12:30.270Z,8.90
2023-04-15T03:14:57.639Z,6.93
2023-04-15T03:17:32.246Z,8.38
2023-04-15T03:19:59.367Z,6.70
2023-04-15T03:22:26.884Z,5.20
2023-04-15T03:24:54.463Z,6.65
2023-04-15T03:27:21.004Z,6.82
2023-04-15T03:29:47.875Z,6.50
2023-04-15T03:32:16.668Z,8.82
2023-04-15T03:34:43.584Z,9.65
2023-04-15T03:37:09.998Z,9.23
2023-04-15T03:39:36.811Z,9.60
2023-04-15T03:42:03.788Z,9.73
2023-04-15T03:44:30.523Z,9.75
2023-04-15T03:46:56.912Z,10.98
2023-04-15T03:49:24.481Z,11.00
2023-04-15T03:51:51.014Z,10.10
2023-04-15T03:54:17.413Z,10.98
2023-04-15T03:56:43.780Z,10.57
2023-04-15T03:59:10.484Z,9.30
2023-04-15T04:01:36.933Z,8.07
2023-04-15T04:04:03.495Z,6.00
2023-04-15T04:06:30.044Z,8.55
2023-04-15T04:08:56.666Z,11.43
2023-04-15T04:11:23.051Z,9.02
2023-04-15T04:13:49.437Z,6.82
2023-04-15T04:16:15.927Z,8.85
2023-04-15T04:18:42.399Z,10.48
2023-04-15T04:21:08.837Z,9.35
2023-04-15T04:23:35.577Z,6.93
2023-04-15T04:26:02.556Z,7.53
2023-04-15T04:28:28.973Z,8.25
2023-04-15T04:30:56.272Z,10.27
2023-04-15T04:33:22.727Z,8.13
2023-04-15T04:35:49.107Z,7.43
2023-04-15T04:38:15.778Z,7.68
2023-04-15T04:40:42.238Z,7.13
2023-04-15T04:43:09.327Z,8.35
2023-04-15T04:45:36.270Z,14.68
2023-04-15T04:48:06.538Z,11.63
2023-04-15T04:50:33.300Z,17.83
2023-04-15T04:53:00.312Z,12.50
2023-04-15T04:55:27.108Z,12.65
2023-04-15T04:57:53.554Z,10.88
2023-04-15T05:00:20.324Z,11.43
2023-04-15T05:02:46.918Z,12.65
2023-04-15T05:05:13.500Z,8.10
2023-04-15T05:07:39.991Z,10.68
2023-04-15T05:10:07.097Z,10.68
2023-04-15T05:12:33.580Z,11.50
2023-04-15T05:15:00.018Z,11.93
2023-04-15T05:17:26.436Z,16.33
2023-04-15T05:19:53.779Z,11.70
2023-04-15T05:22:20.236Z,12.38
2023-04-15T05:24:46.690Z,11.75
2023-04-15T05:27:13.113Z,18.10
2023-04-15T05:29:39.503Z,35.28
2023-04-15T05:32:06.573Z,21.15
2023-04-15T05:34:32.971Z,16.52
2023-04-15T05:36:59.347Z,15.38
2023-04-15T05:39:26.540Z,16.73
2023-04-15T05:41:53.227Z,11.13
2023-04-15T05:44:19.654Z,14.90
2023-04-15T05:46:46.150Z,12.15
2023-04-15T05:49:12.577Z,10.57
2023-04-15T05:51:38.976Z,13.57
2023-04-15T05:54:05.690Z,8.30
2023-04-15T05:56:32.352Z,13.55
2023-04-15T05:58:58.811Z,12.60
2023-04-15T06:01:26.056Z,9.10
2023-04-15T06:03:52.771Z,12.93
2023-04-15T06:06:20.357Z,12.98
2023-04-15T06:08:46.770Z,7.57
2023-04-15T06:11:13.264Z,9.35
2023-04-15T06:13:39.677Z,10.02
2023-04-15T06:16:06.836Z,12.40
2023-04-15T06:18:33.452Z,8.23
2023-04-15T06:20:59.906Z,9.38
2023-04-15T06:23:27.991Z,7.63
2023-04-15T06:25:54.517Z,10.70
2023-04-15T06:28:20.991Z,8.13
2023-04-15T06:30:47.467Z,10.35
2023-04-15T06:33:13.967Z,9.55
2023-04-15T06:35:40.521Z,9.43
2023-04-15T06:38:07.076Z,8.05
2023-04-15T06:40:33.616Z,9.55
2023-04-15T06:43:00.071Z,8.07
2023-04-15T06:45:26.612Z,9.32
2023-04-15T06:47:53.177Z,9.73
2023-04-15T06:50:19.609Z,8.50
2023-04-15T06:52:46.113Z,9.95
2023-04-15T06:55:12.592Z,8.25
2023-04-15T06:57:39.023Z,8.43
2023-04-15T07:00:06.273Z,7.97
2023-04-15T07:02:33.109Z,7.88
2023-04-15T07:04:59.619Z,11.68
2023-04-15T07:07:26.360Z,10.52
2023-04-15T07:09:53.677Z,11.65
2023-04-15T07:12:20.756Z,7.95
2023-04-15T07:14:47.406Z,9.55
2023-04-15T07:17:13.921Z,11.45
2023-04-15T07:19:40.540Z,10.48
2023-04-15T07:22:07.662Z,12.63
2023-04-15T07:24:34.076Z,17.65
2023-04-15T07:27:01.254Z,7.72
2023-04-15T07:29:27.989Z,9.35
2023-04-15T07:31:54.394Z,11.90
2023-04-15T07:34:20.962Z,7.53
2023-04-15T07:36:50.546Z,14.48
2023-04-15T07:39:17.104Z,7.00
2023-04-15T07:41:43.808Z,6.93
2023-04-15T07:44:10.441Z,7.38
2023-04-15T07:46:38.360Z,7.72
2023-04-15T07:49:05.100Z,8.20
2023-04-15T07:51:32.207Z,8.05
2023-04-15T07:53:58.885Z,6.35
2023-04-15T07:56:26.385Z,9.65
2023-04-15T07:58:52.973Z,6.03
2023-04-15T08:01:19.431Z,8.18
2023-04-15T08:03:46.350Z,9.57
2023-04-15T08:06:12.998Z,9.25
2023-04-15T08:08:39.431Z,9.95
2023-04-15T08:11:05.932Z,15.50
2023-04-15T08:13:32.352Z,7.68
2023-04-15T08:16:16.573Z,7.15
2023-04-15T08:18:43.015Z,10.77
2023-04-15T08:21:10.175Z,6.28
2023-04-15T08:23:36.841Z,8.13
2023-04-15T08:26:03.460Z,6.28
2023-04-15T08:28:30.070Z,8.35
2023-04-15T08:30:57.137Z,8.20
2023-04-15T08:33:23.662Z,5.30
2023-04-15T08:35:50.062Z,4.45
2023-04-15T08:38:16.839Z,5.38
2023-04-15T08:40:45.473Z,6.88
2023-04-15T08:43:28.655Z,5.72
2023-04-15T08:45:55.758Z,7.97
2023-04-15T08:48:24.480Z,5.60
2023-04-15T08:50:51.206Z,11.27
2023-04-15T08:53:17.961Z,4.60
2023-04-15T08:55:46.084Z,6.00
2023-04-15T08:58:13.608Z,5.60
2023-04-15T09:00:41.238Z,11.32
2023-04-15T09:03:08.869Z,7.57
2023-04-15T09:05:36.749Z,5.65
2023-04-15T09:08:04.333Z,9.23
2023-04-15T09:10:31.694Z,12.90
2023-04-15T09:12:58.848Z,5.90
2023-04-15T09:15:27.549Z,8.68
2023-04-15T09:17:54.235Z,6.57
2023-04-15T09:20:20.946Z,6.07
2023-04-15T09:22:49.666Z,8.68
2023-04-15T09:25:25.294Z,4.88
2023-04-15T09:27:59.996Z,4.72
2023-04-15T09:30:28.522Z,6.95
2023-04-15T09:33:00.497Z,6.85
2023-04-15T09:35:27.965Z,4.18
2023-04-15T09:38:09.664Z,6.63
2023-04-15T09:40:37.923Z,6.55
2023-04-15T09:43:06.042Z,6.00
2023-04-15T09:45:33.683Z,8.75
2023-04-15T09:48:15.748Z,4.82
2023-04-15T09:50:43.909Z,5.55
2023-04-15T09:53:12.331Z,6.68
2023-04-15T09:55:38.772Z,6.43
2023-04-15T09:58:22.374Z,5.82
2023-04-15T10:00:50.740Z,5.88
2023-04-15T10:03:22.849Z,6.18
2023-04-15T10:05:51.697Z,5.60
2023-04-15T10:08:20.636Z,5.78
2023-04-15T10:10:48.891Z,4.68
2023-04-15T10:13:18.566Z,6.13
2023-04-15T10:15:51.505Z,7.57
2023-04-15T10:18:20.486Z,7.68
2023-04-15T10:20:48.882Z,6.82
2023-04-15T10:23:15.819Z,7.70
2023-04-15T10:25:42.912Z,6.38
2023-04-15T10:28:09.839Z,9.80
2023-04-15T10:30:36.696Z,7.15
2023-04-15T10:33:04.291Z,8.38
2023-04-15T10:35:32.851Z,7.32
2023-04-15T10:37:59.769Z,15.18
2023-04-15T10:40:28.055Z,9.60
2023-04-15T10:42:55.893Z,7.05
2023-04-15T10:45:22.589Z,7.25
2023-04-15T10:47:55.063Z,8.40
2023-04-15T10:50:22.220Z,7.22
2023-04-15T10:52:51.906Z,5.93
2023-04-15T10:55:26.673Z,11.40
2023-04-15T10:57:54.923Z,10.48
2023-04-15T11:00:25.686Z,7.90
2023-04-15T11:03:07.127Z,8.93
2023-04-15T11:05:42.963Z,6.97
2023-04-15T11:08:13.393Z,7.30
2023-04-15T11:10:39.730Z,6.45
2023-04-15T11:13:17.222Z,10.15
2023-04-15T11:15:45.675Z,7.45
2023-04-15T11:18:20.198Z,7.68
2023-04-15T11:21:00.248Z,8.73
2023-04-15T11:23:35.747Z,8.70
2023-04-15T11:26:06.702Z,8.80
2023-04-15T11:28:33.355Z,12.13
2023-04-15T11:31:10.795Z,11.70
2023-04-15T11:33:38.039Z,12.70
2023-04-15T11:36:04.825Z,15.93
2023-04-15T11:38:31.627Z,9.27
2023-04-15T11:40:58.249Z,14.05
2023-04-15T11:43:25.132Z,9.48
2023-04-15T11:45:56.260Z,9.65
2023-04-15T11:48:27.891Z,9.80
2023-04-15T11:51:05.829Z,8.45
2023-04-15T11:53:49.343Z,8.85
2023-04-15T11:56:24.475Z,12.45
2023-04-15T11:58:57.164Z,12.23
2023-04-15T12:01:35.166Z,8.93
2023-04-15T12:04:02.849Z,10.80
2023-04-15T12:06:38.734Z,7.95
2023-04-15T12:09:17.578Z,14.00
2023-04-15T12:11:57.605Z,12.95
2023-04-15T12:14:32.443Z,5.50
2023-04-15T12:17:01.318Z,9.98
2023-04-15T12:19:30.463Z,6.38
2023-04-15T12:22:05.370Z,5.38
2023-04-15T12:24:33.566Z,5.82
2023-04-15T12:27:06.062Z,7.38
2023-04-15T12:29:34.336Z,9.27
2023-04-15T12:32:19.700Z,6.32
2023-04-15T12:34:54.279Z,7.65
2023-04-15T12:37:21.394Z,7.85
2023-04-15T12:39:49.300Z,6.45
2023-04-15T12:42:17.295Z,7.35
2023-04-15T12:44:43.920Z,5.80
2023-04-15T12:47:11.727Z,5.85
2023-04-15T12:49:39.280Z,6.13
2023-04-15T12:52:05.768Z,6.53
2023-04-15T12:54:32.763Z,5.13
2023-04-15T12:56:59.633Z,3.75
2023-04-15T12:59:26.073Z,6.68
2023-04-15T13:01:54.340Z,6.00
2023-04-15T13:04:21.794Z,6.07
2023-04-15T13:06:48.444Z,7.88
2023-04-15T13:09:15.654Z,5.13
2023-04-15T13:11:42.343Z,3.78
2023-04-15T13:14:11.652Z,4.85
2023-04-15T13:16:38.786Z,3.58
2023-04-15T13:19:05.483Z,5.95
2023-04-15T13:21:35.261Z,4.30
2023-04-15T13:24:02.489Z,4.40
2023-04-15T13:26:29.184Z,5.93
2023-04-15T13:28:56.309Z,5.90
2023-04-15T13:31:22.886Z,3.67
2023-04-15T13:33:49.376Z,6.28
2023-04-15T13:36:18.923Z,4.75
2023-04-15T13:38:45.380Z,6.10
2023-04-15T13:41:12.131Z,5.65
2023-04-15T13:43:38.549Z,5.22
2023-04-15T13:46:05.275Z,4.05
2023-04-15T13:48:31.733Z,6.68
2023-04-15T13:50:58.176Z,8.35
2023-04-15T13:53:37.941Z,7.13
2023-04-15T13:56:07.284Z,5.82
2023-04-15T13:58:33.871Z,7.20
2023-04-15T14:01:01.195Z,5.25
2023-04-15T14:03:28.532Z,5.95
2023-04-15T14:05:56.893Z,7.57
2023-04-15T14:08:24.996Z,6.38
2023-04-15T14:10:51.444Z,5.78
2023-04-15T14:13:19.517Z,5.95
2023-04-15T14:15:46.493Z,7.53
2023-04-15T14:18:12.947Z,7.82
2023-04-15T14:20:39.380Z,3.55
2023-04-15T14:23:05.782Z,6.95
2023-04-15T14:25:33.968Z,7.63
2023-04-15T14:28:01.349Z,15.57
2023-04-15T14:30:27.819Z,17.20
2023-04-15T14:32:54.324Z,9.20
2023-04-15T14:35:20.820Z,5.65
2023-04-15T14:37:47.230Z,4.95
2023-04-15T14:40:13.672Z,8.48
2023-04-15T14:42:40.085Z,5.03
2023-04-15T14:45:06.943Z,7.60
2023-04-15T14:47:33.395Z,4.82
2023-04-15T14:50:00.575Z,4.63
2023-04-15T14:52:27.023Z,5.65
2023-04-15T14:54:53.459Z,4.10
2023-04-15T14:57:19.829Z,3.47
2023-04-15T14:59:46.330Z,2.53
2023-04-15T15:02:17.269Z,4.70
2023-04-15T15:04:53.362Z,3.47
2023-04-15T15:07:20.432Z,3.22
2023-04-15T15:09:46.878Z,1.92
2023-04-15T15:12:13.280Z,1.52
2023-04-15T15:14:39.653Z,1.58
2023-04-15T15:17:06.239Z,2.78
2023-04-15T15:19:33.065Z,5.70
2023-04-15T15:21:59.496Z,4.22
2023-04-15T15:24:25.928Z,3.17
2023-04-15T15:26:52.334Z,3.85
2023-04-15T15:29:18.835Z,4.80
2023-04-15T15:31:45.434Z,4.38
2023-04-15T15:34:11.894Z,3.03
2023-04-15T15:36:38.292Z,4.95
2023-04-15T15:39:05.289Z,5.32
2023-04-15T15:41:33.318Z,2.13
2023-04-15T15:43:59.852Z,3.35
2023-04-15T15:46:27.918Z,3.72
2023-04-15T15:48:54.679Z,10.15
2023-04-15T15:51:21.136Z,4.85
2023-04-15T15:53:47.866Z,3.78
2023-04-15T15:56:14.347Z,4.20
2023-04-15T15:58:41.731Z,8.15
2023-04-15T16:01:08.318Z,2.80
2023-04-15T16:03:34.856Z,5.43
2023-04-15T16:06:01.612Z,3.85
2023-04-15T16:08:28.138Z,4.22
2023-04-15T16:10:54.794Z,5.70
2023-04-15T16:13:21.965Z,5.03
2023-04-15T16:15:50.204Z,4.13
2023-04-15T16:18:17.286Z,3.53
2023-04-15T16:20:44.051Z,3.08
2023-04-15T16:23:16.117Z,3.05
2023-04-15T16:25:44.062Z,3.65
2023-04-15T16:28:25.213Z,3.53
2023-04-15T16:30:53.420Z,3.40
2023-04-15T16:33:20.068Z,3.03
2023-04-15T16:35:46.474Z,6.45
2023-04-15T16:38:12.929Z,3.53
2023-04-15T16:40:39.332Z,6.25
2023-04-15T16:43:11.093Z,9.23
2023-04-15T16:45:37.792Z,6.85
2023-04-15T16:48:04.598Z,4.18
2023-04-15T16:50:31.416Z,7.63
2023-04-15T16:52:57.836Z,7.30
2023-04-15T16:55:24.254Z,7.13
2023-04-15T16:58:01.991Z,5.32
2023-04-15T17:00:31.078Z,7.15
2023-04-15T17:02:57.897Z,6.78
2023-04-15T17:05:24.612Z,5.05
2023-04-15T17:07:51.056Z,7.60
2023-04-15T17:10:17.501Z,7.50
2023-04-15T17:12:43.988Z,8.07
2023-04-15T17:15:10.462Z,5.38
2023-04-15T17:17:36.905Z,5.93
2023-04-15T17:20:04.142Z,6.03
2023-04-15T17:22:30.687Z,3.90
2023-04-15T17:24:57.136Z,6.95
2023-04-15T17:27:24.661Z,7.55
2023-04-15T17:29:51.084Z,4.10
2023-04-15T17:32:17.825Z,6.35
2023-04-15T17:34:50.252Z,5.32
2023-04-15T17:37:17.764Z,7.68
2023-04-15T17:39:44.270Z,4.80
2023-04-15T17:42:11.254Z,5.50
2023-04-15T17:44:37.669Z,5.28
2023-04-15T17:47:04.161Z,6.60
2023-04-15T17:49:31.261Z,10.70
2023-04-15T17:51:57.672Z,13.50
2023-04-15T17:54:24.078Z,7.50
2023-04-15T17:56:50.624Z,4.53
2023-04-15T17:59:17.633Z,4.97
2023-04-15T18:01:45.381Z,6.45
2023-04-15T18:04:12.260Z,19.83
2023-04-15T18:06:39.122Z,7.50
2023-04-15T18:09:06.512Z,7.30
2023-04-15T18:11:33.461Z,5.88
2023-04-15T18:14:02.270Z,5.20
2023-04-15T18:16:28.763Z,3.65
2023-04-15T18:18:55.585Z,4.53
2023-04-15T18:21:22.042Z,4.10
2023-04-15T18:23:48.455Z,3.92
2023-04-15T18:26:14.877Z,3.97
2023-04-15T18:28:41.364Z,3.25
2023-04-15T18:31:07.810Z,3.35
2023-04-15T18:33:35.709Z,8.07
2023-04-15T18:36:02.561Z,3.40
2023-04-15T18:38:29.246Z,5.40
2023-04-15T18:40:55.990Z,5.85
2023-04-15T18:43:22.376Z,5.63
2023-04-15T18:45:48.933Z,4.60
2023-04-15T18:48:15.964Z,5.43
2023-04-15T18:50:43.127Z,4.53
2023-04-15T18:53:09.621Z,5.03
2023-04-15T18:55:36.163Z,4.18
2023-04-15T18:58:06.495Z,3.72
2023-04-15T19:00:38.879Z,4.38
2023-04-15T19:03:06.168Z,4.65
2023-04-15T19:05:32.878Z,9.35
2023-04-15T19:07:59.790Z,10.05
2023-04-15T19:10:27.964Z,4.90
2023-04-15T19:12:55.197Z,6.00
2023-04-15T19:15:21.690Z,4.95
2023-04-15T19:17:48.217Z,3.25
2023-04-15T19:20:14.747Z,5.55
2023-04-15T19:22:42.932Z,3.83
2023-04-15T19:25:09.743Z,5.68
2023-04-15T19:27:38.082Z,5.13
2023-04-15T19:30:06.318Z,3.10
2023-04-15T19:32:32.757Z,1.65
2023-04-15T19:34:59.256Z,2.28
2023-04-15T19:37:25.779Z,2.13
2023-04-15T19:39:54.439Z,2.80
2023-04-15T19:42:20.846Z,2.88
2023-04-15T19:44:47.279Z,3.10
2023-04-15T19:47:13.733Z,2.95
2023-04-15T19:49:40.413Z,6.70
2023-04-15T19:52:06.825Z,4.40
2023-04-15T19:54:33.303Z,10.85
2023-04-15T19:56:59.757Z,12.25
2023-04-15T19:59:26.199Z,5.05
2023-04-15T20:01:53.080Z,9.93
2023-04-15T20:04:19.595Z,4.15
2023-04-15T20:06:46.058Z,4.15
2023-04-15T20:09:12.677Z,3.05
2023-04-15T20:12:48.134Z,2.22
2023-04-15T20:14:25.537Z,1.85
2023-04-15T20:16:51.990Z,1.90
2023-04-15T20:19:18.396Z,1.30
2023-04-15T20:21:45.312Z,1.58
2023-04-15T20:24:11.800Z,1.40
2023-04-15T20:26:38.199Z,2.70
2023-04-15T20:29:04.927Z,2.10
2023-04-15T20:31:31.951Z,1.48
2023-04-15T20:33:58.435Z,2.67
2023-04-15T20:36:24.862Z,1.83
2023-04-15T20:38:51.366Z,4.32
2023-04-15T20:41:17.749Z,0.90
2023-04-15T20:43:44.153Z,0.98
2023-04-15T20:46:20.377Z,2.20
2023-04-15T20:48:48.056Z,3.63
2023-04-15T20:51:15.122Z,1.58
2023-04-15T20:53:42.089Z,0.70
2023-04-15T20:56:08.611Z,0.98
2023-04-15T20:58:35.024Z,0.60
2023-04-15T21:01:02.156Z,1.08
2023-04-15T21:03:28.869Z,1.23
2023-04-15T21:05:55.688Z,1.52
2023-04-15T21:08:28.995Z,1.63
2023-04-15T21:10:56.543Z,2.75
2023-04-15T21:13:23.723Z,9.32
2023-04-15T21:15:53.313Z,6.65
2023-04-15T21:18:21.245Z,4.55
2023-04-15T21:20:59.080Z,2.30
2023-04-15T21:23:26.143Z,2.70
2023-04-15T21:25:52.536Z,2.38
2023-04-15T21:28:18.970Z,1.50
2023-04-15T21:30:46.060Z,1.95
2023-04-15T21:33:12.468Z,1.88
2023-04-15T21:35:39.043Z,1.90
2023-04-15T21:38:05.438Z,3.20
2023-04-15T21:40:31.827Z,1.80
2023-04-15T21:42:58.275Z,2.05
2023-04-15T21:45:24.695Z,3.60
2023-04-15T21:48:06.790Z,4.50
2023-04-15T21:50:36.531Z,2.92
2023-04-15T21:53:03.844Z,2.47
2023-04-15T21:55:30.334Z,2.25
2023-04-15T21:57:56.704Z,2.85
2023-04-15T22:00:24.126Z,3.03
2023-04-15T22:02:51.130Z,2.60
2023-04-15T22:05:17.864Z,4.28
2023-04-15T22:07:44.290Z,4.32
2023-04-15T22:10:11.314Z,4.53
2023-04-15T22:12:40.885Z,3.72
2023-04-15T22:15:07.955Z,3.10
2023-04-15T22:17:34.450Z,3.90
2023-04-15T22:20:02.186Z,5.70
2023-04-15T22:22:44.007Z,4.75
2023-04-15T22:25:11.695Z,3.45
2023-04-15T22:27:38.155Z,4.05
2023-04-15T22:30:05.199Z,3.58
2023-04-15T22:32:31.656Z,2.45
2023-04-15T22:34:58.091Z,2.67
2023-04-15T22:37:24.570Z,2.53
2023-04-15T22:39:51.816Z,2.28
2023-04-15T22:42:18.274Z,2.50
2023-04-15T22:44:44.657Z,3.15
2023-04-15T22:47:11.177Z,3.75
2023-04-15T22:49:37.608Z,3.00
2023-04-15T22:52:04.154Z,2.45
2023-04-15T22:54:30.713Z,2.28
2023-04-15T22:56:57.786Z,2.50
2023-04-15T22:59:24.529Z,3.13
2023-04-15T23:01:51.089Z,2.92
2023-04-15T23:04:23.391Z,3.13
2023-04-15T23:06:54.262Z,2.85
2023-04-15T23:09:21.018Z,2.55
2023-04-15T23:11:47.576Z,2.60
2023-04-15T23:14:13.985Z,2.92
2023-04-15T23:16:40.532Z,4.45
2023-04-15T23:19:07.224Z,3.20
2023-04-15T23:21:33.869Z,4.38
2023-04-15T23:24:00.268Z,3.72
2023-04-15T23:26:27.332Z,3.88
2023-04-15T23:28:53.762Z,5.07
2023-04-15T23:31:20.256Z,3.83
2023-04-15T23:33:46.735Z,5.32
2023-04-15T23:36:13.141Z,3.83
2023-04-15T23:38:39.635Z,4.63
2023-04-15T23:41:06.086Z,4.68
2023-04-15T23:43:32.532Z,3.88
2023-04-15T23:45:58.932Z,3.60
2023-04-15T23:48:25.403Z,3.63
2023-04-15T23:50:51.815Z,5.28
2023-04-15T23:53:18.346Z,4.53
2023-04-15T23:55:44.736Z,4.18
2023-04-15T23:58:11.743Z,4.05
